sensor_id;sensor_type;location;lat;lon;timestamp;P1;durP1;ratioP1;P2;durP2;ratioP2
177;SDS011;77;48.792;9.032;2023-07-24T00:01:01;12.63;;;7.83;;
177;SDS011;77;48.792;9.032;2023-07-24T00:03:26;13.00;;;8.10;;
177;SDS011;77;48.792;9.032;2023-07-24T00:05:53;13.90;;;7.53;;
177;SDS011;77;48.792;9.032;2023-07-24T00:08:18;14.80;;;7.93;;
177;SDS011;77;48.792;9.032;2023-07-24T00:10:43;14.03;;;8.20;;
177;SDS011;77;48.792;9.032;2023-07-24T00:13:08;18.13;;;8.73;;
177;SDS011;77;48.792;9.032;2023-07-24T00:15:33;18.30;;;8.60;;
177;SDS011;77;48.792;9.032;2023-07-24T00:17:58;15.17;;;8.50;;
177;SDS011;77;48.792;9.032;2023-07-24T00:20:24;17.47;;;8.73;;
177;SDS011;77;48.792;9.032;2023-07-24T00:22:50;15.87;;;8.27;;
177;SDS011;77;48.792;9.032;2023-07-24T00:25:15;15.93;;;8.63;;
177;SDS011;77;48.792;9.032;2023-07-24T00:27:40;15.57;;;8.37;;
177;SDS011;77;48.792;9.032;2023-07-24T00:30:06;15.10;;;8.50;;
177;SDS011;77;48.792;9.032;2023-07-24T00:32:32;16.90;;;8.80;;
177;SDS011;77;48.792;9.032;2023-07-24T00:34:57;14.63;;;8.47;;
177;SDS011;77;48.792;9.032;2023-07-24T00:37:22;15.60;;;8.30;;
177;SDS011;77;48.792;9.032;2023-07-24T00:39:48;14.73;;;8.07;;
177;SDS011;77;48.792;9.032;2023-07-24T00:42:14;21.23;;;8.67;;
177;SDS011;77;48.792;9.032;2023-07-24T00:44:39;16.63;;;8.07;;
177;SDS011;77;48.792;9.032;2023-07-24T00:47:04;15.83;;;8.63;;
177;SDS011;77;48.792;9.032;2023-07-24T00:49:29;16.57;;;8.07;;
177;SDS011;77;48.792;9.032;2023-07-24T00:51:55;14.27;;;7.77;;
177;SDS011;77;48.792;9.032;2023-07-24T00:54:20;15.40;;;8.43;;
177;SDS011;77;48.792;9.032;2023-07-24T00:56:48;17.77;;;8.50;;
177;SDS011;77;48.792;9.032;2023-07-24T00:59:14;12.23;;;6.57;;
177;SDS011;77;48.792;9.032;2023-07-24T01:01:39;17.30;;;8.50;;
177;SDS011;77;48.792;9.032;2023-07-24T01:04:04;14.00;;;8.13;;
177;SDS011;77;48.792;9.032;2023-07-24T01:06:30;15.27;;;8.17;;
177;SDS011;77;48.792;9.032;2023-07-24T01:08:55;16.97;;;7.97;;
177;SDS011;77;48.792;9.032;2023-07-24T01:11:23;13.23;;;7.50;;
177;SDS011;77;48.792;9.032;2023-07-24T01:13:51;17.10;;;7.87;;
177;SDS011;77;48.792;9.032;2023-07-24T01:16:20;13.67;;;7.50;;
177;SDS011;77;48.792;9.032;2023-07-24T01:18:46;13.50;;;7.70;;
177;SDS011;77;48.792;9.032;2023-07-24T01:21:12;14.50;;;8.47;;
177;SDS011;77;48.792;9.032;2023-07-24T01:23:44;15.17;;;7.90;;
177;SDS011;77;48.792;9.032;2023-07-24T01:26:11;13.23;;;7.40;;
177;SDS011;77;48.792;9.032;2023-07-24T01:28:36;16.37;;;8.13;;
177;SDS011;77;48.792;9.032;2023-07-24T01:31:02;17.67;;;7.90;;
177;SDS011;77;48.792;9.032;2023-07-24T01:33:27;12.93;;;8.20;;
177;SDS011;77;48.792;9.032;2023-07-24T01:35:53;17.43;;;8.23;;
177;SDS011;77;48.792;9.032;2023-07-24T01:38:19;15.47;;;8.10;;
177;SDS011;77;48.792;9.032;2023-07-24T01:40:44;14.60;;;8.33;;
177;SDS011;77;48.792;9.032;2023-07-24T01:43:11;13.93;;;8.20;;
177;SDS011;77;48.792;9.032;2023-07-24T01:45:36;15.17;;;7.87;;
177;SDS011;77;48.792;9.032;2023-07-24T01:48:01;14.13;;;8.57;;
177;SDS011;77;48.792;9.032;2023-07-24T01:50:26;15.73;;;9.03;;
177;SDS011;77;48.792;9.032;2023-07-24T01:52:51;16.70;;;8.63;;
177;SDS011;77;48.792;9.032;2023-07-24T01:55:17;16.63;;;8.33;;
177;SDS011;77;48.792;9.032;2023-07-24T01:57:42;13.37;;;8.37;;
177;SDS011;77;48.792;9.032;2023-07-24T02:00:09;13.70;;;8.40;;
177;SDS011;77;48.792;9.032;2023-07-24T02:02:35;16.30;;;8.47;;
177;SDS011;77;48.792;9.032;2023-07-24T02:05:00;13.87;;;7.80;;
177;SDS011;77;48.792;9.032;2023-07-24T02:07:25;13.30;;;8.20;;
177;SDS011;77;48.792;9.032;2023-07-24T02:09:50;14.87;;;8.80;;
177;SDS011;77;48.792;9.032;2023-07-24T02:12:15;14.80;;;8.23;;
177;SDS011;77;48.792;9.032;2023-07-24T02:14:41;12.97;;;7.83;;
177;SDS011;77;48.792;9.032;2023-07-24T02:17:07;15.20;;;8.40;;
177;SDS011;77;48.792;9.032;2023-07-24T02:19:32;12.93;;;8.13;;
177;SDS011;77;48.792;9.032;2023-07-24T02:21:57;13.10;;;7.77;;
177;SDS011;77;48.792;9.032;2023-07-24T02:24:23;20.47;;;8.73;;
177;SDS011;77;48.792;9.032;2023-07-24T02:26:48;13.97;;;8.20;;
177;SDS011;77;48.792;9.032;2023-07-24T02:29:13;16.60;;;9.10;;
177;SDS011;77;48.792;9.032;2023-07-24T02:31:38;15.00;;;9.00;;
177;SDS011;77;48.792;9.032;2023-07-24T02:34:05;13.80;;;8.43;;
177;SDS011;77;48.792;9.032;2023-07-24T02:36:31;12.97;;;8.00;;
177;SDS011;77;48.792;9.032;2023-07-24T02:38:56;14.83;;;8.23;;
177;SDS011;77;48.792;9.032;2023-07-24T02:41:21;13.33;;;7.77;;
177;SDS011;77;48.792;9.032;2023-07-24T02:43:46;14.47;;;7.97;;
177;SDS011;77;48.792;9.032;2023-07-24T02:46:11;14.57;;;8.10;;
177;SDS011;77;48.792;9.032;2023-07-24T02:48:37;18.20;;;8.80;;
177;SDS011;77;48.792;9.032;2023-07-24T02:51:03;15.93;;;8.90;;
177;SDS011;77;48.792;9.032;2023-07-24T02:53:28;15.43;;;8.43;;
177;SDS011;77;48.792;9.032;2023-07-24T02:55:53;14.03;;;8.40;;
177;SDS011;77;48.792;9.032;2023-07-24T02:58:19;16.63;;;8.27;;
177;SDS011;77;48.792;9.032;2023-07-24T03:00:44;14.80;;;8.10;;
177;SDS011;77;48.792;9.032;2023-07-24T03:03:09;14.17;;;8.43;;
177;SDS011;77;48.792;9.032;2023-07-24T03:05:34;13.87;;;7.70;;
177;SDS011;77;48.792;9.032;2023-07-24T03:08:01;14.67;;;8.07;;
177;SDS011;77;48.792;9.032;2023-07-24T03:10:26;14.30;;;8.10;;
177;SDS011;77;48.792;9.032;2023-07-24T03:12:51;13.00;;;7.53;;
177;SDS011;77;48.792;9.032;2023-07-24T03:15:16;13.70;;;8.23;;
177;SDS011;77;48.792;9.032;2023-07-24T03:17:42;13.10;;;7.97;;
177;SDS011;77;48.792;9.032;2023-07-24T03:20:15;13.50;;;7.93;;
177;SDS011;77;48.792;9.032;2023-07-24T03:22:40;12.93;;;7.90;;
177;SDS011;77;48.792;9.032;2023-07-24T03:25:07;12.93;;;7.63;;
177;SDS011;77;48.792;9.032;2023-07-24T03:27:32;13.40;;;8.00;;
177;SDS011;77;48.792;9.032;2023-07-24T03:29:57;15.57;;;8.27;;
177;SDS011;77;48.792;9.032;2023-07-24T03:32:22;13.80;;;7.97;;
177;SDS011;77;48.792;9.032;2023-07-24T03:34:48;13.47;;;7.90;;
177;SDS011;77;48.792;9.032;2023-07-24T03:37:13;14.00;;;7.70;;
177;SDS011;77;48.792;9.032;2023-07-24T03:39:38;15.33;;;8.90;;
177;SDS011;77;48.792;9.032;2023-07-24T03:42:05;15.80;;;8.20;;
177;SDS011;77;48.792;9.032;2023-07-24T03:44:30;15.20;;;8.40;;
177;SDS011;77;48.792;9.032;2023-07-24T03:46:55;13.70;;;8.23;;
177;SDS011;77;48.792;9.032;2023-07-24T03:49:20;13.87;;;8.03;;
177;SDS011;77;48.792;9.032;2023-07-24T03:51:45;13.63;;;7.70;;
177;SDS011;77;48.792;9.032;2023-07-24T03:54:11;13.93;;;7.90;;
177;SDS011;77;48.792;9.032;2023-07-24T03:56:36;14.10;;;8.10;;
177;SDS011;77;48.792;9.032;2023-07-24T03:59:02;14.90;;;8.53;;
177;SDS011;77;48.792;9.032;2023-07-24T04:01:27;18.17;;;8.27;;
177;SDS011;77;48.792;9.032;2023-07-24T04:03:53;13.70;;;8.23;;
177;SDS011;77;48.792;9.032;2023-07-24T04:06:18;14.40;;;8.23;;
177;SDS011;77;48.792;9.032;2023-07-24T04:08:43;14.80;;;8.40;;
177;SDS011;77;48.792;9.032;2023-07-24T04:11:08;14.20;;;8.37;;
177;SDS011;77;48.792;9.032;2023-07-24T04:13:33;14.90;;;8.20;;
177;SDS011;77;48.792;9.032;2023-07-24T04:16:00;13.30;;;7.90;;
177;SDS011;77;48.792;9.032;2023-07-24T04:18:25;13.40;;;8.03;;
177;SDS011;77;48.792;9.032;2023-07-24T04:20:50;14.87;;;8.07;;
177;SDS011;77;48.792;9.032;2023-07-24T04:23:15;13.50;;;8.20;;
177;SDS011;77;48.792;9.032;2023-07-24T04:25:40;14.20;;;8.40;;
177;SDS011;77;48.792;9.032;2023-07-24T04:28:05;14.50;;;8.17;;
177;SDS011;77;48.792;9.032;2023-07-24T04:30:31;12.77;;;8.20;;
177;SDS011;77;48.792;9.032;2023-07-24T04:32:58;14.73;;;8.50;;
177;SDS011;77;48.792;9.032;2023-07-24T04:35:23;12.93;;;7.97;;
177;SDS011;77;48.792;9.032;2023-07-24T04:37:49;14.17;;;7.90;;
177;SDS011;77;48.792;9.032;2023-07-24T04:40:14;15.63;;;8.53;;
177;SDS011;77;48.792;9.032;2023-07-24T04:42:39;14.30;;;8.40;;
177;SDS011;77;48.792;9.032;2023-07-24T04:45:05;14.77;;;8.77;;
177;SDS011;77;48.792;9.032;2023-07-24T04:47:30;15.50;;;8.70;;
177;SDS011;77;48.792;9.032;2023-07-24T04:49:56;14.87;;;8.27;;
177;SDS011;77;48.792;9.032;2023-07-24T04:52:22;14.00;;;8.30;;
177;SDS011;77;48.792;9.032;2023-07-24T04:54:47;18.70;;;9.40;;
177;SDS011;77;48.792;9.032;2023-07-24T04:57:12;14.30;;;8.33;;
177;SDS011;77;48.792;9.032;2023-07-24T04:59:37;16.23;;;8.30;;
177;SDS011;77;48.792;9.032;2023-07-24T05:02:03;15.10;;;8.73;;
177;SDS011;77;48.792;9.032;2023-07-24T05:04:28;14.70;;;8.77;;
177;SDS011;77;48.792;9.032;2023-07-24T05:06:54;14.80;;;8.73;;
177;SDS011;77;48.792;9.032;2023-07-24T05:09:19;14.80;;;8.33;;
177;SDS011;77;48.792;9.032;2023-07-24T05:11:45;15.10;;;8.93;;
177;SDS011;77;48.792;9.032;2023-07-24T05:14:10;14.83;;;7.77;;
177;SDS011;77;48.792;9.032;2023-07-24T05:16:35;19.40;;;9.20;;
177;SDS011;77;48.792;9.032;2023-07-24T05:19:00;14.87;;;8.53;;
177;SDS011;77;48.792;9.032;2023-07-24T05:21:25;17.70;;;8.47;;
177;SDS011;77;48.792;9.032;2023-07-24T05:23:52;16.80;;;8.53;;
177;SDS011;77;48.792;9.032;2023-07-24T05:26:17;15.33;;;9.00;;
177;SDS011;77;48.792;9.032;2023-07-24T05:28:42;16.10;;;8.83;;
177;SDS011;77;48.792;9.032;2023-07-24T05:31:07;14.03;;;8.00;;
177;SDS011;77;48.792;9.032;2023-07-24T05:33:32;15.70;;;8.63;;
177;SDS011;77;48.792;9.032;2023-07-24T05:35:58;14.63;;;8.70;;
177;SDS011;77;48.792;9.032;2023-07-24T05:38:23;18.47;;;9.03;;
177;SDS011;77;48.792;9.032;2023-07-24T05:40:54;16.73;;;9.77;;
177;SDS011;77;48.792;9.032;2023-07-24T05:43:20;15.33;;;8.70;;
177;SDS011;77;48.792;9.032;2023-07-24T05:45:45;15.23;;;8.80;;
177;SDS011;77;48.792;9.032;2023-07-24T05:48:10;15.30;;;8.10;;
177;SDS011;77;48.792;9.032;2023-07-24T05:50:35;17.43;;;9.50;;
177;SDS011;77;48.792;9.032;2023-07-24T05:53:00;16.90;;;9.23;;
177;SDS011;77;48.792;9.032;2023-07-24T05:55:25;15.43;;;8.70;;
177;SDS011;77;48.792;9.032;2023-07-24T05:57:52;13.93;;;8.33;;
177;SDS011;77;48.792;9.032;2023-07-24T06:00:17;16.27;;;8.80;;
177;SDS011;77;48.792;9.032;2023-07-24T06:02:43;12.50;;;7.70;;
177;SDS011;77;48.792;9.032;2023-07-24T06:05:08;15.90;;;8.50;;
177;SDS011;77;48.792;9.032;2023-07-24T06:07:33;15.60;;;8.60;;
177;SDS011;77;48.792;9.032;2023-07-24T06:09:58;18.33;;;8.20;;
177;SDS011;77;48.792;9.032;2023-07-24T06:12:23;15.70;;;8.73;;
177;SDS011;77;48.792;9.032;2023-07-24T06:14:50;16.30;;;8.90;;
177;SDS011;77;48.792;9.032;2023-07-24T06:17:15;16.10;;;8.77;;
177;SDS011;77;48.792;9.032;2023-07-24T06:19:40;23.20;;;9.73;;
177;SDS011;77;48.792;9.032;2023-07-24T06:22:05;16.40;;;8.50;;
177;SDS011;77;48.792;9.032;2023-07-24T06:24:30;15.77;;;9.07;;
177;SDS011;77;48.792;9.032;2023-07-24T06:26:56;15.20;;;9.30;;
177;SDS011;77;48.792;9.032;2023-07-24T06:29:21;16.70;;;8.60;;
177;SDS011;77;48.792;9.032;2023-07-24T06:31:47;16.50;;;8.90;;
177;SDS011;77;48.792;9.032;2023-07-24T06:34:12;14.60;;;8.87;;
177;SDS011;77;48.792;9.032;2023-07-24T06:36:38;15.50;;;8.60;;
177;SDS011;77;48.792;9.032;2023-07-24T06:39:03;19.70;;;9.17;;
177;SDS011;77;48.792;9.032;2023-07-24T06:41:28;16.87;;;8.97;;
177;SDS011;77;48.792;9.032;2023-07-24T06:43:53;15.40;;;9.23;;
177;SDS011;77;48.792;9.032;2023-07-24T06:46:18;14.43;;;8.90;;
177;SDS011;77;48.792;9.032;2023-07-24T06:48:45;16.07;;;9.10;;
177;SDS011;77;48.792;9.032;2023-07-24T06:51:10;17.70;;;9.30;;
177;SDS011;77;48.792;9.032;2023-07-24T06:53:35;13.90;;;8.70;;
177;SDS011;77;48.792;9.032;2023-07-24T06:56:00;16.00;;;9.20;;
177;SDS011;77;48.792;9.032;2023-07-24T06:58:26;14.70;;;9.07;;
177;SDS011;77;48.792;9.032;2023-07-24T07:00:51;15.90;;;9.50;;
177;SDS011;77;48.792;9.032;2023-07-24T07:03:16;14.63;;;8.60;;
177;SDS011;77;48.792;9.032;2023-07-24T07:05:43;18.50;;;10.00;;
177;SDS011;77;48.792;9.032;2023-07-24T07:08:08;15.10;;;9.00;;
177;SDS011;77;48.792;9.032;2023-07-24T07:10:33;15.50;;;9.20;;
177;SDS011;77;48.792;9.032;2023-07-24T07:12:58;15.53;;;9.00;;
177;SDS011;77;48.792;9.032;2023-07-24T07:15:23;14.97;;;9.20;;
177;SDS011;77;48.792;9.032;2023-07-24T07:17:49;15.30;;;9.17;;
177;SDS011;77;48.792;9.032;2023-07-24T07:20:14;17.60;;;9.50;;
177;SDS011;77;48.792;9.032;2023-07-24T07:22:40;16.70;;;8.83;;
177;SDS011;77;48.792;9.032;2023-07-24T07:25:06;17.10;;;10.20;;
177;SDS011;77;48.792;9.032;2023-07-24T07:27:31;19.27;;;9.57;;
177;SDS011;77;48.792;9.032;2023-07-24T07:29:56;19.93;;;9.43;;
177;SDS011;77;48.792;9.032;2023-07-24T07:32:21;14.97;;;9.57;;
177;SDS011;77;48.792;9.032;2023-07-24T07:34:47;17.87;;;9.30;;
177;SDS011;77;48.792;9.032;2023-07-24T07:37:12;16.67;;;9.77;;
177;SDS011;77;48.792;9.032;2023-07-24T07:39:38;17.27;;;9.43;;
177;SDS011;77;48.792;9.032;2023-07-24T07:42:04;17.70;;;9.67;;
177;SDS011;77;48.792;9.032;2023-07-24T07:44:30;18.17;;;9.90;;
177;SDS011;77;48.792;9.032;2023-07-24T07:46:55;15.77;;;9.87;;
177;SDS011;77;48.792;9.032;2023-07-24T07:49:20;17.43;;;10.13;;
177;SDS011;77;48.792;9.032;2023-07-24T07:51:45;16.23;;;9.40;;
177;SDS011;77;48.792;9.032;2023-07-24T07:54:10;19.20;;;9.80;;
177;SDS011;77;48.792;9.032;2023-07-24T07:56:37;18.70;;;9.77;;
177;SDS011;77;48.792;9.032;2023-07-24T07:59:02;20.67;;;9.70;;
177;SDS011;77;48.792;9.032;2023-07-24T08:01:27;17.80;;;9.60;;
177;SDS011;77;48.792;9.032;2023-07-24T08:03:53;18.73;;;9.43;;
177;SDS011;77;48.792;9.032;2023-07-24T08:06:18;20.07;;;9.50;;
177;SDS011;77;48.792;9.032;2023-07-24T08:08:43;17.83;;;10.33;;
177;SDS011;77;48.792;9.032;2023-07-24T08:11:08;14.33;;;9.40;;
177;SDS011;77;48.792;9.032;2023-07-24T08:13:35;17.80;;;10.30;;
177;SDS011;77;48.792;9.032;2023-07-24T08:16:00;15.97;;;9.40;;
177;SDS011;77;48.792;9.032;2023-07-24T08:18:26;17.50;;;9.90;;
177;SDS011;77;48.792;9.032;2023-07-24T08:20:51;16.77;;;10.10;;
177;SDS011;77;48.792;9.032;2023-07-24T08:23:17;20.00;;;10.30;;
177;SDS011;77;48.792;9.032;2023-07-24T08:25:50;17.47;;;10.10;;
177;SDS011;77;48.792;9.032;2023-07-24T08:28:15;17.30;;;10.00;;
177;SDS011;77;48.792;9.032;2023-07-24T08:30:42;17.47;;;9.70;;
177;SDS011;77;48.792;9.032;2023-07-24T08:33:07;21.43;;;10.37;;
177;SDS011;77;48.792;9.032;2023-07-24T08:35:32;17.80;;;9.93;;
177;SDS011;77;48.792;9.032;2023-07-24T08:37:57;15.20;;;9.23;;
177;SDS011;77;48.792;9.032;2023-07-24T08:40:22;18.13;;;9.50;;
177;SDS011;77;48.792;9.032;2023-07-24T08:42:48;15.57;;;9.43;;
177;SDS011;77;48.792;9.032;2023-07-24T08:45:14;17.53;;;9.83;;
177;SDS011;77;48.792;9.032;2023-07-24T08:47:42;19.23;;;9.67;;
177;SDS011;77;48.792;9.032;2023-07-24T08:50:08;14.70;;;9.33;;
177;SDS011;77;48.792;9.032;2023-07-24T08:52:33;17.40;;;9.33;;
177;SDS011;77;48.792;9.032;2023-07-24T08:54:59;16.63;;;9.40;;
177;SDS011;77;48.792;9.032;2023-07-24T08:57:26;17.43;;;9.10;;
177;SDS011;77;48.792;9.032;2023-07-24T08:59:51;16.20;;;9.10;;
177;SDS011;77;48.792;9.032;2023-07-24T09:02:16;15.40;;;9.17;;
177;SDS011;77;48.792;9.032;2023-07-24T09:04:43;19.73;;;9.50;;
177;SDS011;77;48.792;9.032;2023-07-24T09:07:08;14.57;;;9.03;;
177;SDS011;77;48.792;9.032;2023-07-24T09:09:34;21.10;;;9.20;;
177;SDS011;77;48.792;9.032;2023-07-24T09:11:59;16.83;;;8.57;;
177;SDS011;77;48.792;9.032;2023-07-24T09:14:25;15.33;;;8.83;;
177;SDS011;77;48.792;9.032;2023-07-24T09:17:01;12.80;;;8.00;;
177;SDS011;77;48.792;9.032;2023-07-24T09:19:26;15.67;;;7.93;;
177;SDS011;77;48.792;9.032;2023-07-24T09:21:52;15.27;;;7.80;;
177;SDS011;77;48.792;9.032;2023-07-24T09:24:18;13.27;;;7.57;;
177;SDS011;77;48.792;9.032;2023-07-24T09:26:47;14.67;;;8.40;;
177;SDS011;77;48.792;9.032;2023-07-24T09:29:12;13.70;;;7.50;;
177;SDS011;77;48.792;9.032;2023-07-24T09:31:37;13.60;;;7.10;;
177;SDS011;77;48.792;9.032;2023-07-24T09:34:02;13.73;;;6.70;;
177;SDS011;77;48.792;9.032;2023-07-24T09:36:36;13.23;;;6.27;;
177;SDS011;77;48.792;9.032;2023-07-24T09:39:02;13.13;;;7.27;;
177;SDS011;77;48.792;9.032;2023-07-24T09:41:28;13.80;;;6.90;;
177;SDS011;77;48.792;9.032;2023-07-24T09:43:57;11.97;;;6.57;;
177;SDS011;77;48.792;9.032;2023-07-24T09:46:22;13.67;;;7.07;;
177;SDS011;77;48.792;9.032;2023-07-24T09:48:48;10.57;;;6.50;;
177;SDS011;77;48.792;9.032;2023-07-24T09:51:13;12.57;;;6.70;;
177;SDS011;77;48.792;9.032;2023-07-24T09:53:39;12.80;;;6.67;;
177;SDS011;77;48.792;9.032;2023-07-24T09:56:06;14.80;;;7.33;;
177;SDS011;77;48.792;9.032;2023-07-24T09:58:32;12.57;;;7.13;;
177;SDS011;77;48.792;9.032;2023-07-24T10:00:58;13.17;;;7.20;;
177;SDS011;77;48.792;9.032;2023-07-24T10:03:23;12.87;;;7.10;;
177;SDS011;77;48.792;9.032;2023-07-24T10:05:48;11.77;;;6.40;;
177;SDS011;77;48.792;9.032;2023-07-24T10:08:14;12.13;;;6.77;;
177;SDS011;77;48.792;9.032;2023-07-24T10:10:39;11.40;;;6.70;;
177;SDS011;77;48.792;9.032;2023-07-24T10:13:06;11.50;;;6.87;;
177;SDS011;77;48.792;9.032;2023-07-24T10:15:31;13.40;;;7.67;;
177;SDS011;77;48.792;9.032;2023-07-24T10:18:01;15.60;;;7.97;;
177;SDS011;77;48.792;9.032;2023-07-24T10:20:32;15.10;;;8.17;;
177;SDS011;77;48.792;9.032;2023-07-24T10:23:00;19.00;;;8.10;;
177;SDS011;77;48.792;9.032;2023-07-24T10:25:28;12.93;;;7.17;;
177;SDS011;77;48.792;9.032;2023-07-24T10:27:53;12.33;;;7.67;;
177;SDS011;77;48.792;9.032;2023-07-24T10:30:27;13.00;;;7.57;;
177;SDS011;77;48.792;9.032;2023-07-24T10:32:53;13.40;;;8.17;;
177;SDS011;77;48.792;9.032;2023-07-24T10:35:18;14.20;;;7.87;;
177;SDS011;77;48.792;9.032;2023-07-24T10:37:44;16.30;;;8.10;;
177;SDS011;77;48.792;9.032;2023-07-24T10:40:18;14.13;;;8.20;;
177;SDS011;77;48.792;9.032;2023-07-24T10:42:43;15.63;;;9.10;;
177;SDS011;77;48.792;9.032;2023-07-24T10:45:09;15.63;;;8.90;;
177;SDS011;77;48.792;9.032;2023-07-24T10:47:36;15.37;;;8.70;;
177;SDS011;77;48.792;9.032;2023-07-24T10:50:01;16.67;;;8.70;;
177;SDS011;77;48.792;9.032;2023-07-24T10:52:29;15.60;;;8.03;;
177;SDS011;77;48.792;9.032;2023-07-24T10:54:54;16.23;;;8.83;;
177;SDS011;77;48.792;9.032;2023-07-24T10:57:24;16.40;;;8.80;;
177;SDS011;77;48.792;9.032;2023-07-24T10:59:49;15.77;;;8.87;;
177;SDS011;77;48.792;9.032;2023-07-24T11:02:15;18.23;;;8.90;;
177;SDS011;77;48.792;9.032;2023-07-24T11:04:42;16.67;;;8.73;;
177;SDS011;77;48.792;9.032;2023-07-24T11:07:08;16.73;;;8.67;;
177;SDS011;77;48.792;9.032;2023-07-24T11:09:36;15.23;;;8.23;;
177;SDS011;77;48.792;9.032;2023-07-24T11:12:08;16.73;;;8.60;;
177;SDS011;77;48.792;9.032;2023-07-24T11:14:34;16.40;;;8.80;;
177;SDS011;77;48.792;9.032;2023-07-24T11:16:59;20.37;;;8.83;;
177;SDS011;77;48.792;9.032;2023-07-24T11:19:24;15.63;;;8.80;;
177;SDS011;77;48.792;9.032;2023-07-24T11:21:51;15.13;;;8.80;;
177;SDS011;77;48.792;9.032;2023-07-24T11:24:17;15.37;;;8.43;;
177;SDS011;77;48.792;9.032;2023-07-24T11:26:42;14.20;;;8.17;;
177;SDS011;77;48.792;9.032;2023-07-24T11:29:10;15.60;;;8.33;;
177;SDS011;77;48.792;9.032;2023-07-24T11:31:36;17.30;;;8.87;;
177;SDS011;77;48.792;9.032;2023-07-24T11:34:01;12.63;;;7.97;;
177;SDS011;77;48.792;9.032;2023-07-24T11:36:27;14.17;;;8.43;;
177;SDS011;77;48.792;9.032;2023-07-24T11:38:53;14.33;;;8.40;;
177;SDS011;77;48.792;9.032;2023-07-24T11:41:18;14.10;;;7.90;;
177;SDS011;77;48.792;9.032;2023-07-24T11:43:47;14.60;;;8.50;;
177;SDS011;77;48.792;9.032;2023-07-24T11:46:21;12.47;;;7.03;;
177;SDS011;77;48.792;9.032;2023-07-24T11:48:46;14.47;;;8.30;;
177;SDS011;77;48.792;9.032;2023-07-24T11:51:12;13.37;;;8.27;;
177;SDS011;77;48.792;9.032;2023-07-24T11:53:37;17.10;;;7.80;;
177;SDS011;77;48.792;9.032;2023-07-24T11:56:12;14.40;;;8.27;;
177;SDS011;77;48.792;9.032;2023-07-24T11:58:37;15.60;;;8.33;;
177;SDS011;77;48.792;9.032;2023-07-24T12:01:02;13.30;;;7.97;;
177;SDS011;77;48.792;9.032;2023-07-24T12:03:28;13.50;;;7.67;;
177;SDS011;77;48.792;9.032;2023-07-24T12:05:53;13.53;;;7.90;;
177;SDS011;77;48.792;9.032;2023-07-24T12:08:19;14.30;;;8.00;;
177;SDS011;77;48.792;9.032;2023-07-24T12:10:45;14.17;;;7.97;;
177;SDS011;77;48.792;9.032;2023-07-24T12:13:11;17.70;;;8.57;;
177;SDS011;77;48.792;9.032;2023-07-24T12:15:37;14.17;;;8.27;;
177;SDS011;77;48.792;9.032;2023-07-24T12:18:03;13.23;;;7.90;;
177;SDS011;77;48.792;9.032;2023-07-24T12:20:28;13.00;;;8.00;;
177;SDS011;77;48.792;9.032;2023-07-24T12:22:54;13.87;;;8.30;;
177;SDS011;77;48.792;9.032;2023-07-24T12:25:19;14.07;;;7.90;;
177;SDS011;77;48.792;9.032;2023-07-24T12:27:44;12.00;;;7.80;;
177;SDS011;77;48.792;9.032;2023-07-24T12:30:11;16.43;;;8.27;;
177;SDS011;77;48.792;9.032;2023-07-24T12:32:36;13.17;;;7.60;;
177;SDS011;77;48.792;9.032;2023-07-24T12:35:01;11.30;;;7.17;;
177;SDS011;77;48.792;9.032;2023-07-24T12:37:26;15.13;;;7.80;;
177;SDS011;77;48.792;9.032;2023-07-24T12:39:51;13.07;;;7.90;;
177;SDS011;77;48.792;9.032;2023-07-24T12:42:16;14.87;;;8.20;;
177;SDS011;77;48.792;9.032;2023-07-24T12:44:42;12.77;;;7.50;;
177;SDS011;77;48.792;9.032;2023-07-24T12:47:09;11.87;;;7.03;;
177;SDS011;77;48.792;9.032;2023-07-24T12:49:34;13.43;;;7.43;;
177;SDS011;77;48.792;9.032;2023-07-24T12:51:59;12.87;;;7.80;;
177;SDS011;77;48.792;9.032;2023-07-24T12:54:25;14.20;;;7.50;;
177;SDS011;77;48.792;9.032;2023-07-24T12:56:50;13.30;;;7.00;;
177;SDS011;77;48.792;9.032;2023-07-24T12:59:15;12.70;;;7.43;;
177;SDS011;77;48.792;9.032;2023-07-24T13:01:41;12.00;;;7.20;;
177;SDS011;77;48.792;9.032;2023-07-24T13:04:07;14.67;;;7.43;;
177;SDS011;77;48.792;9.032;2023-07-24T13:06:33;11.87;;;7.33;;
177;SDS011;77;48.792;9.032;2023-07-24T13:08:58;13.70;;;7.47;;
177;SDS011;77;48.792;9.032;2023-07-24T13:11:23;16.13;;;7.53;;
177;SDS011;77;48.792;9.032;2023-07-24T13:13:48;11.70;;;6.90;;
177;SDS011;77;48.792;9.032;2023-07-24T13:16:14;11.20;;;6.93;;
177;SDS011;77;48.792;9.032;2023-07-24T13:18:39;11.90;;;7.00;;
177;SDS011;77;48.792;9.032;2023-07-24T13:21:05;11.70;;;6.90;;
177;SDS011;77;48.792;9.032;2023-07-24T13:23:30;11.70;;;7.07;;
177;SDS011;77;48.792;9.032;2023-07-24T13:25:56;12.13;;;7.17;;
177;SDS011;77;48.792;9.032;2023-07-24T13:28:21;10.90;;;6.63;;
177;SDS011;77;48.792;9.032;2023-07-24T13:30:46;13.43;;;7.27;;
177;SDS011;77;48.792;9.032;2023-07-24T13:33:11;11.50;;;6.80;;
177;SDS011;77;48.792;9.032;2023-07-24T13:35:36;12.30;;;7.23;;
177;SDS011;77;48.792;9.032;2023-07-24T13:38:03;12.13;;;7.00;;
177;SDS011;77;48.792;9.032;2023-07-24T13:40:28;12.20;;;6.77;;
177;SDS011;77;48.792;9.032;2023-07-24T13:42:53;10.93;;;6.63;;
177;SDS011;77;48.792;9.032;2023-07-24T13:45:18;10.13;;;6.07;;
177;SDS011;77;48.792;9.032;2023-07-24T13:47:44;10.07;;;6.40;;
177;SDS011;77;48.792;9.032;2023-07-24T13:50:09;9.90;;;5.83;;
177;SDS011;77;48.792;9.032;2023-07-24T13:52:34;10.40;;;6.27;;
177;SDS011;77;48.792;9.032;2023-07-24T13:55:01;10.27;;;6.73;;
177;SDS011;77;48.792;9.032;2023-07-24T13:57:26;10.80;;;6.33;;
177;SDS011;77;48.792;9.032;2023-07-24T13:59:51;9.30;;;5.60;;
177;SDS011;77;48.792;9.032;2023-07-24T14:02:16;9.63;;;5.53;;
177;SDS011;77;48.792;9.032;2023-07-24T14:04:41;10.20;;;6.00;;
177;SDS011;77;48.792;9.032;2023-07-24T14:07:07;12.83;;;6.30;;
177;SDS011;77;48.792;9.032;2023-07-24T14:09:32;9.27;;;5.83;;
177;SDS011;77;48.792;9.032;2023-07-24T14:11:59;10.17;;;5.90;;
177;SDS011;77;48.792;9.032;2023-07-24T14:14:24;9.90;;;5.43;;
177;SDS011;77;48.792;9.032;2023-07-24T14:16:49;9.57;;;6.03;;
177;SDS011;77;48.792;9.032;2023-07-24T14:19:15;9.90;;;6.27;;
177;SDS011;77;48.792;9.032;2023-07-24T14:21:40;11.60;;;6.37;;
177;SDS011;77;48.792;9.032;2023-07-24T14:24:05;8.60;;;5.37;;
177;SDS011;77;48.792;9.032;2023-07-24T14:26:31;11.40;;;6.37;;
177;SDS011;77;48.792;9.032;2023-07-24T14:28:57;10.47;;;5.83;;
177;SDS011;77;48.792;9.032;2023-07-24T14:31:23;12.37;;;5.83;;
177;SDS011;77;48.792;9.032;2023-07-24T14:33:48;13.60;;;5.37;;
177;SDS011;77;48.792;9.032;2023-07-24T14:36:13;10.10;;;5.60;;
177;SDS011;77;48.792;9.032;2023-07-24T14:38:38;10.10;;;5.90;;
177;SDS011;77;48.792;9.032;2023-07-24T14:41:03;8.60;;;5.30;;
177;SDS011;77;48.792;9.032;2023-07-24T14:43:29;10.07;;;6.03;;
177;SDS011;77;48.792;9.032;2023-07-24T14:45:55;8.80;;;5.27;;
177;SDS011;77;48.792;9.032;2023-07-24T14:48:21;10.43;;;6.13;;
177;SDS011;77;48.792;9.032;2023-07-24T14:50:46;10.20;;;5.40;;
177;SDS011;77;48.792;9.032;2023-07-24T14:53:11;8.97;;;5.40;;
177;SDS011;77;48.792;9.032;2023-07-24T14:55:36;8.67;;;5.20;;
177;SDS011;77;48.792;9.032;2023-07-24T14:58:02;7.60;;;4.87;;
177;SDS011;77;48.792;9.032;2023-07-24T15:00:27;9.73;;;5.73;;
177;SDS011;77;48.792;9.032;2023-07-24T15:02:54;8.17;;;5.40;;
177;SDS011;77;48.792;9.032;2023-07-24T15:07:56;10.13;;;5.30;;
177;SDS011;77;48.792;9.032;2023-07-24T15:10:21;8.40;;;5.20;;
177;SDS011;77;48.792;9.032;2023-07-24T15:12:47;8.30;;;5.10;;
177;SDS011;77;48.792;9.032;2023-07-24T15:15:12;10.00;;;5.40;;
177;SDS011;77;48.792;9.032;2023-07-24T15:17:37;9.00;;;5.70;;
177;SDS011;77;48.792;9.032;2023-07-24T15:20:05;8.03;;;5.20;;
177;SDS011;77;48.792;9.032;2023-07-24T15:22:30;9.00;;;5.20;;
177;SDS011;77;48.792;9.032;2023-07-24T15:24:55;8.40;;;5.27;;
177;SDS011;77;48.792;9.032;2023-07-24T15:27:20;8.27;;;5.27;;
177;SDS011;77;48.792;9.032;2023-07-24T15:29:46;10.00;;;5.60;;
177;SDS011;77;48.792;9.032;2023-07-24T15:32:11;8.70;;;5.17;;
177;SDS011;77;48.792;9.032;2023-07-24T15:34:36;9.60;;;5.80;;
177;SDS011;77;48.792;9.032;2023-07-24T15:37:03;9.02;;;5.18;;
177;SDS011;77;48.792;9.032;2023-07-24T15:39:28;8.70;;;5.30;;